< < Back
Terminal Aerodrome Forecast


Current Version              Previous Versions:   1  2  3  4  5  6  7  8  9  

Terminal Aerodrome Forecast

880
FTUS42 KJAX 221100
TAFGNV
TAF
KGNV 221120Z 2212/2312 VRB03KT P6SM SCT120 BKN250
     FM222000 27005KT P6SM VCTS SCT040CB
     FM230000 23003KT P6SM SCT250=



Latest METAR

583
SAUS70 KWBC 212300 RRV
MTRGNV
METAR KGNV 222253Z 24008KT 10SM VCTS SCT065 26/22 A3000 RMK AO2 WSHFT
2143 LTG DSNT S AND SW RAE10 TSE26 SLP154 P0004 T02560222


USA.gov is the U.S. government's official web portal to all federal, state and local government web resources and services.